sensor_id;sensor_type;location;lat;lon;timestamp;P1;durP1;ratioP1;P2;durP2;ratioP2
18302;SDS011;9277;37.980;23.748;2022-12-29T00:01:24;16.98;;;9.48;;
18302;SDS011;9277;37.980;23.748;2022-12-29T00:03:51;18.80;;;10.20;;
18302;SDS011;9277;37.980;23.748;2022-12-29T00:06:18;24.02;;;10.88;;
18302;SDS011;9277;37.980;23.748;2022-12-29T00:08:45;25.92;;;11.77;;
18302;SDS011;9277;37.980;23.748;2022-12-29T00:11:12;25.63;;;11.20;;
18302;SDS011;9277;37.980;23.748;2022-12-29T00:13:39;22.98;;;10.95;;
18302;SDS011;9277;37.980;23.748;2022-12-29T00:16:24;23.65;;;11.55;;
18302;SDS011;9277;37.980;23.748;2022-12-29T00:18:51;27.33;;;11.80;;
18302;SDS011;9277;37.980;23.748;2022-12-29T00:21:19;25.25;;;10.35;;
18302;SDS011;9277;37.980;23.748;2022-12-29T00:24:03;18.48;;;9.48;;
18302;SDS011;9277;37.980;23.748;2022-12-29T00:26:47;22.65;;;10.52;;
18302;SDS011;9277;37.980;23.748;2022-12-29T00:29:32;21.98;;;10.88;;
18302;SDS011;9277;37.980;23.748;2022-12-29T00:32:17;20.15;;;10.05;;
18302;SDS011;9277;37.980;23.748;2022-12-29T00:35:01;19.58;;;9.48;;
18302;SDS011;9277;37.980;23.748;2022-12-29T00:37:37;21.05;;;9.68;;
18302;SDS011;9277;37.980;23.748;2022-12-29T00:40:22;25.63;;;10.77;;
18302;SDS011;9277;37.980;23.748;2022-12-29T00:43:08;19.80;;;8.93;;
18302;SDS011;9277;37.980;23.748;2022-12-29T00:45:52;18.92;;;9.43;;
18302;SDS011;9277;37.980;23.748;2022-12-29T00:48:20;16.88;;;8.70;;
18302;SDS011;9277;37.980;23.748;2022-12-29T00:51:01;18.35;;;8.93;;
18302;SDS011;9277;37.980;23.748;2022-12-29T00:53:28;21.95;;;9.73;;
18302;SDS011;9277;37.980;23.748;2022-12-29T00:55:55;19.17;;;9.18;;
18302;SDS011;9277;37.980;23.748;2022-12-29T00:58:21;19.88;;;8.95;;
18302;SDS011;9277;37.980;23.748;2022-12-29T01:00:48;18.33;;;9.23;;
18302;SDS011;9277;37.980;23.748;2022-12-29T01:03:15;18.08;;;8.93;;
18302;SDS011;9277;37.980;23.748;2022-12-29T01:05:43;20.05;;;9.35;;
18302;SDS011;9277;37.980;23.748;2022-12-29T01:08:10;22.27;;;10.10;;
18302;SDS011;9277;37.980;23.748;2022-12-29T01:10:37;24.35;;;10.77;;
18302;SDS011;9277;37.980;23.748;2022-12-29T01:13:03;17.67;;;9.65;;
18302;SDS011;9277;37.980;23.748;2022-12-29T01:15:30;21.77;;;10.60;;
18302;SDS011;9277;37.980;23.748;2022-12-29T01:17:57;23.85;;;10.05;;
18302;SDS011;9277;37.980;23.748;2022-12-29T01:20:23;22.73;;;9.88;;
18302;SDS011;9277;37.980;23.748;2022-12-29T01:22:52;20.58;;;9.60;;
18302;SDS011;9277;37.980;23.748;2022-12-29T01:25:19;20.90;;;10.05;;
18302;SDS011;9277;37.980;23.748;2022-12-29T01:27:45;16.80;;;9.20;;
18302;SDS011;9277;37.980;23.748;2022-12-29T01:30:12;20.08;;;9.48;;
18302;SDS011;9277;37.980;23.748;2022-12-29T01:32:39;23.23;;;10.10;;
18302;SDS011;9277;37.980;23.748;2022-12-29T01:35:06;21.00;;;9.13;;
18302;SDS011;9277;37.980;23.748;2022-12-29T01:37:33;15.25;;;8.90;;
18302;SDS011;9277;37.980;23.748;2022-12-29T01:40:01;17.70;;;8.65;;
18302;SDS011;9277;37.980;23.748;2022-12-29T01:42:28;17.73;;;8.70;;
18302;SDS011;9277;37.980;23.748;2022-12-29T01:44:55;21.10;;;9.25;;
18302;SDS011;9277;37.980;23.748;2022-12-29T01:47:25;17.13;;;8.38;;
18302;SDS011;9277;37.980;23.748;2022-12-29T01:49:53;23.73;;;9.65;;
18302;SDS011;9277;37.980;23.748;2022-12-29T01:52:21;16.33;;;8.52;;
18302;SDS011;9277;37.980;23.748;2022-12-29T01:54:49;19.08;;;9.02;;
18302;SDS011;9277;37.980;23.748;2022-12-29T01:57:20;18.60;;;9.25;;
18302;SDS011;9277;37.980;23.748;2022-12-29T01:59:48;15.65;;;8.25;;
18302;SDS011;9277;37.980;23.748;2022-12-29T02:02:17;19.67;;;9.35;;
18302;SDS011;9277;37.980;23.748;2022-12-29T02:04:44;16.17;;;8.38;;
18302;SDS011;9277;37.980;23.748;2022-12-29T02:07:13;21.23;;;9.02;;
18302;SDS011;9277;37.980;23.748;2022-12-29T02:09:41;17.50;;;8.70;;
18302;SDS011;9277;37.980;23.748;2022-12-29T02:12:09;13.52;;;8.23;;
18302;SDS011;9277;37.980;23.748;2022-12-29T02:14:37;16.42;;;8.23;;
18302;SDS011;9277;37.980;23.748;2022-12-29T02:17:06;15.45;;;8.52;;
18302;SDS011;9277;37.980;23.748;2022-12-29T02:19:46;14.63;;;7.45;;
18302;SDS011;9277;37.980;23.748;2022-12-29T02:22:18;14.90;;;7.78;;
18302;SDS011;9277;37.980;23.748;2022-12-29T02:27:57;15.45;;;8.02;;
18302;SDS011;9277;37.980;23.748;2022-12-29T02:30:40;10.60;;;6.32;;
18302;SDS011;9277;37.980;23.748;2022-12-29T02:33:12;11.48;;;6.70;;
18302;SDS011;9277;37.980;23.748;2022-12-29T02:35:43;15.30;;;7.60;;
18302;SDS011;9277;37.980;23.748;2022-12-29T02:38:13;12.82;;;6.25;;
18302;SDS011;9277;37.980;23.748;2022-12-29T02:40:43;11.40;;;6.10;;
18302;SDS011;9277;37.980;23.748;2022-12-29T02:43:14;12.23;;;6.55;;
18302;SDS011;9277;37.980;23.748;2022-12-29T02:45:45;13.27;;;6.40;;
18302;SDS011;9277;37.980;23.748;2022-12-29T02:48:15;11.77;;;6.65;;
18302;SDS011;9277;37.980;23.748;2022-12-29T02:50:50;11.27;;;6.00;;
18302;SDS011;9277;37.980;23.748;2022-12-29T02:53:17;10.05;;;6.35;;
18302;SDS011;9277;37.980;23.748;2022-12-29T02:56:06;12.68;;;6.35;;
18302;SDS011;9277;37.980;23.748;2022-12-29T02:58:32;12.43;;;6.40;;
18302;SDS011;9277;37.980;23.748;2022-12-29T03:01:04;11.45;;;6.75;;
18302;SDS011;9277;37.980;23.748;2022-12-29T03:03:37;11.30;;;6.43;;
18302;SDS011;9277;37.980;23.748;2022-12-29T03:06:11;13.13;;;6.43;;
18302;SDS011;9277;37.980;23.748;2022-12-29T03:08:44;11.50;;;6.70;;
18302;SDS011;9277;37.980;23.748;2022-12-29T03:11:13;11.63;;;5.88;;
18302;SDS011;9277;37.980;23.748;2022-12-29T03:13:55;12.75;;;6.40;;
18302;SDS011;9277;37.980;23.748;2022-12-29T03:16:43;10.38;;;5.63;;
18302;SDS011;9277;37.980;23.748;2022-12-29T03:19:13;10.73;;;5.82;;
18302;SDS011;9277;37.980;23.748;2022-12-29T03:21:44;9.23;;;5.60;;
18302;SDS011;9277;37.980;23.748;2022-12-29T03:24:40;13.07;;;6.78;;
18302;SDS011;9277;37.980;23.748;2022-12-29T03:27:08;11.38;;;5.95;;
18302;SDS011;9277;37.980;23.748;2022-12-29T03:29:39;10.63;;;6.00;;
18302;SDS011;9277;37.980;23.748;2022-12-29T03:32:09;10.02;;;6.15;;
18302;SDS011;9277;37.980;23.748;2022-12-29T03:34:38;13.77;;;6.57;;
18302;SDS011;9277;37.980;23.748;2022-12-29T03:37:06;11.07;;;6.35;;
18302;SDS011;9277;37.980;23.748;2022-12-29T03:39:36;11.82;;;5.75;;
18302;SDS011;9277;37.980;23.748;2022-12-29T03:42:04;13.68;;;6.88;;
18302;SDS011;9277;37.980;23.748;2022-12-29T03:44:33;9.82;;;6.10;;
18302;SDS011;9277;37.980;23.748;2022-12-29T03:46:59;9.88;;;5.68;;
18302;SDS011;9277;37.980;23.748;2022-12-29T03:49:28;10.38;;;6.07;;
18302;SDS011;9277;37.980;23.748;2022-12-29T03:51:55;14.32;;;6.60;;
18302;SDS011;9277;37.980;23.748;2022-12-29T03:54:21;13.07;;;5.68;;
18302;SDS011;9277;37.980;23.748;2022-12-29T03:56:48;10.98;;;6.20;;
18302;SDS011;9277;37.980;23.748;2022-12-29T03:59:15;12.02;;;5.65;;
18302;SDS011;9277;37.980;23.748;2022-12-29T04:01:41;8.88;;;5.70;;
18302;SDS011;9277;37.980;23.748;2022-12-29T04:04:09;9.32;;;5.57;;
18302;SDS011;9277;37.980;23.748;2022-12-29T04:06:37;13.98;;;5.75;;
18302;SDS011;9277;37.980;23.748;2022-12-29T04:09:04;9.70;;;5.25;;
18302;SDS011;9277;37.980;23.748;2022-12-29T04:11:31;11.30;;;5.35;;
18302;SDS011;9277;37.980;23.748;2022-12-29T04:13:58;9.02;;;5.65;;
18302;SDS011;9277;37.980;23.748;2022-12-29T04:16:24;9.05;;;5.45;;
18302;SDS011;9277;37.980;23.748;2022-12-29T04:18:51;10.20;;;5.63;;
18302;SDS011;9277;37.980;23.748;2022-12-29T04:21:18;9.93;;;5.38;;
18302;SDS011;9277;37.980;23.748;2022-12-29T04:23:45;12.05;;;5.50;;
18302;SDS011;9277;37.980;23.748;2022-12-29T04:26:12;8.88;;;5.32;;
18302;SDS011;9277;37.980;23.748;2022-12-29T04:28:39;8.98;;;4.85;;
18302;SDS011;9277;37.980;23.748;2022-12-29T04:31:06;9.27;;;5.07;;
18302;SDS011;9277;37.980;23.748;2022-12-29T04:33:33;8.38;;;5.10;;
18302;SDS011;9277;37.980;23.748;2022-12-29T04:35:59;8.23;;;4.70;;
18302;SDS011;9277;37.980;23.748;2022-12-29T04:38:26;11.35;;;4.80;;
18302;SDS011;9277;37.980;23.748;2022-12-29T04:40:55;8.43;;;4.70;;
18302;SDS011;9277;37.980;23.748;2022-12-29T04:43:21;7.55;;;4.45;;
18302;SDS011;9277;37.980;23.748;2022-12-29T04:45:48;10.27;;;4.57;;
18302;SDS011;9277;37.980;23.748;2022-12-29T04:48:15;9.13;;;4.75;;
18302;SDS011;9277;37.980;23.748;2022-12-29T04:50:42;8.23;;;4.80;;
18302;SDS011;9277;37.980;23.748;2022-12-29T04:53:09;9.18;;;5.10;;
18302;SDS011;9277;37.980;23.748;2022-12-29T04:55:36;11.13;;;4.97;;
18302;SDS011;9277;37.980;23.748;2022-12-29T04:58:04;10.85;;;5.72;;
18302;SDS011;9277;37.980;23.748;2022-12-29T05:00:31;12.82;;;4.82;;
18302;SDS011;9277;37.980;23.748;2022-12-29T05:02:58;9.68;;;5.63;;
18302;SDS011;9277;37.980;23.748;2022-12-29T05:05:25;8.48;;;5.10;;
18302;SDS011;9277;37.980;23.748;2022-12-29T05:07:51;10.63;;;4.80;;
18302;SDS011;9277;37.980;23.748;2022-12-29T05:10:18;10.13;;;5.68;;
18302;SDS011;9277;37.980;23.748;2022-12-29T05:12:45;9.43;;;5.85;;
18302;SDS011;9277;37.980;23.748;2022-12-29T05:15:13;9.80;;;6.13;;
18302;SDS011;9277;37.980;23.748;2022-12-29T05:17:40;16.75;;;6.22;;
18302;SDS011;9277;37.980;23.748;2022-12-29T05:20:07;10.88;;;6.00;;
18302;SDS011;9277;37.980;23.748;2022-12-29T05:22:34;9.85;;;5.63;;
18302;SDS011;9277;37.980;23.748;2022-12-29T05:25:01;14.88;;;6.50;;
18302;SDS011;9277;37.980;23.748;2022-12-29T05:27:28;8.95;;;5.15;;
18302;SDS011;9277;37.980;23.748;2022-12-29T05:29:55;11.15;;;5.70;;
18302;SDS011;9277;37.980;23.748;2022-12-29T05:32:23;14.98;;;6.07;;
18302;SDS011;9277;37.980;23.748;2022-12-29T05:34:50;9.50;;;5.57;;
18302;SDS011;9277;37.980;23.748;2022-12-29T05:37:17;8.85;;;5.32;;
18302;SDS011;9277;37.980;23.748;2022-12-29T05:39:43;9.82;;;5.28;;
18302;SDS011;9277;37.980;23.748;2022-12-29T05:42:10;8.25;;;5.15;;
18302;SDS011;9277;37.980;23.748;2022-12-29T05:44:37;9.48;;;5.93;;
18302;SDS011;9277;37.980;23.748;2022-12-29T05:47:04;10.93;;;4.60;;
18302;SDS011;9277;37.980;23.748;2022-12-29T05:49:32;12.05;;;5.65;;
18302;SDS011;9277;37.980;23.748;2022-12-29T05:51:59;8.68;;;5.15;;
18302;SDS011;9277;37.980;23.748;2022-12-29T05:54:26;10.70;;;5.60;;
18302;SDS011;9277;37.980;23.748;2022-12-29T05:56:53;13.45;;;5.43;;
18302;SDS011;9277;37.980;23.748;2022-12-29T05:59:21;10.63;;;5.40;;
18302;SDS011;9277;37.980;23.748;2022-12-29T06:01:48;9.40;;;5.35;;
18302;SDS011;9277;37.980;23.748;2022-12-29T06:04:15;8.95;;;5.45;;
18302;SDS011;9277;37.980;23.748;2022-12-29T06:06:43;10.75;;;5.80;;
18302;SDS011;9277;37.980;23.748;2022-12-29T06:09:10;11.98;;;5.97;;
18302;SDS011;9277;37.980;23.748;2022-12-29T06:11:37;10.23;;;5.13;;
18302;SDS011;9277;37.980;23.748;2022-12-29T06:14:04;15.00;;;5.43;;
18302;SDS011;9277;37.980;23.748;2022-12-29T06:16:31;9.60;;;6.05;;
18302;SDS011;9277;37.980;23.748;2022-12-29T06:18:57;10.30;;;5.45;;
18302;SDS011;9277;37.980;23.748;2022-12-29T06:21:24;10.98;;;5.80;;
18302;SDS011;9277;37.980;23.748;2022-12-29T06:23:52;17.20;;;5.85;;
18302;SDS011;9277;37.980;23.748;2022-12-29T06:26:19;11.10;;;5.82;;
18302;SDS011;9277;37.980;23.748;2022-12-29T06:28:46;12.50;;;6.80;;
18302;SDS011;9277;37.980;23.748;2022-12-29T06:31:13;13.70;;;6.57;;
18302;SDS011;9277;37.980;23.748;2022-12-29T06:33:40;9.52;;;6.05;;
18302;SDS011;9277;37.980;23.748;2022-12-29T06:36:06;10.43;;;6.53;;
18302;SDS011;9277;37.980;23.748;2022-12-29T06:38:33;10.40;;;6.60;;
18302;SDS011;9277;37.980;23.748;2022-12-29T06:41:02;10.45;;;5.75;;
18302;SDS011;9277;37.980;23.748;2022-12-29T06:43:29;21.73;;;6.80;;
18302;SDS011;9277;37.980;23.748;2022-12-29T06:45:57;15.65;;;7.07;;
18302;SDS011;9277;37.980;23.748;2022-12-29T06:48:24;12.70;;;6.88;;
18302;SDS011;9277;37.980;23.748;2022-12-29T06:50:51;17.38;;;7.20;;
18302;SDS011;9277;37.980;23.748;2022-12-29T06:53:17;10.45;;;6.45;;
18302;SDS011;9277;37.980;23.748;2022-12-29T06:55:44;13.02;;;6.95;;
18302;SDS011;9277;37.980;23.748;2022-12-29T06:58:12;13.52;;;7.70;;
18302;SDS011;9277;37.980;23.748;2022-12-29T07:00:39;16.33;;;6.85;;
18302;SDS011;9277;37.980;23.748;2022-12-29T07:03:06;16.77;;;7.43;;
18302;SDS011;9277;37.980;23.748;2022-12-29T07:05:33;13.27;;;7.20;;
18302;SDS011;9277;37.980;23.748;2022-12-29T07:08:00;11.30;;;6.60;;
18302;SDS011;9277;37.980;23.748;2022-12-29T07:10:27;14.23;;;7.80;;
18302;SDS011;9277;37.980;23.748;2022-12-29T07:12:54;15.50;;;7.75;;
18302;SDS011;9277;37.980;23.748;2022-12-29T07:15:22;18.55;;;7.60;;
18302;SDS011;9277;37.980;23.748;2022-12-29T07:17:49;15.85;;;7.78;;
18302;SDS011;9277;37.980;23.748;2022-12-29T07:20:15;14.45;;;7.40;;
18302;SDS011;9277;37.980;23.748;2022-12-29T07:22:42;15.50;;;7.90;;
18302;SDS011;9277;37.980;23.748;2022-12-29T07:25:09;14.48;;;6.97;;
18302;SDS011;9277;37.980;23.748;2022-12-29T07:27:36;11.52;;;7.40;;
18302;SDS011;9277;37.980;23.748;2022-12-29T07:30:03;13.27;;;7.30;;
18302;SDS011;9277;37.980;23.748;2022-12-29T07:32:33;13.52;;;7.03;;
18302;SDS011;9277;37.980;23.748;2022-12-29T07:35:00;15.55;;;8.02;;
18302;SDS011;9277;37.980;23.748;2022-12-29T07:37:27;15.90;;;6.90;;
18302;SDS011;9277;37.980;23.748;2022-12-29T07:39:54;17.25;;;7.30;;
18302;SDS011;9277;37.980;23.748;2022-12-29T07:42:20;14.00;;;7.38;;
18302;SDS011;9277;37.980;23.748;2022-12-29T07:44:47;15.30;;;8.07;;
18302;SDS011;9277;37.980;23.748;2022-12-29T07:47:14;14.07;;;7.28;;
18302;SDS011;9277;37.980;23.748;2022-12-29T07:49:42;17.52;;;7.97;;
18302;SDS011;9277;37.980;23.748;2022-12-29T07:52:09;12.82;;;6.53;;
18302;SDS011;9277;37.980;23.748;2022-12-29T07:54:36;11.07;;;6.95;;
18302;SDS011;9277;37.980;23.748;2022-12-29T07:57:03;13.60;;;7.15;;
18302;SDS011;9277;37.980;23.748;2022-12-29T07:59:31;12.43;;;6.20;;
18302;SDS011;9277;37.980;23.748;2022-12-29T08:01:58;11.55;;;6.55;;
18302;SDS011;9277;37.980;23.748;2022-12-29T08:04:25;13.90;;;5.95;;
18302;SDS011;9277;37.980;23.748;2022-12-29T08:06:53;10.30;;;6.25;;
18302;SDS011;9277;37.980;23.748;2022-12-29T08:09:20;10.75;;;5.95;;
18302;SDS011;9277;37.980;23.748;2022-12-29T08:11:47;13.98;;;6.95;;
18302;SDS011;9277;37.980;23.748;2022-12-29T08:14:14;10.10;;;5.82;;
18302;SDS011;9277;37.980;23.748;2022-12-29T08:16:41;15.88;;;6.72;;
18302;SDS011;9277;37.980;23.748;2022-12-29T08:19:09;10.05;;;5.55;;
18302;SDS011;9277;37.980;23.748;2022-12-29T08:21:36;11.77;;;5.57;;
18302;SDS011;9277;37.980;23.748;2022-12-29T08:24:05;7.78;;;5.15;;
18302;SDS011;9277;37.980;23.748;2022-12-29T08:26:32;8.65;;;4.85;;
18302;SDS011;9277;37.980;23.748;2022-12-29T08:28:59;8.90;;;5.28;;
18302;SDS011;9277;37.980;23.748;2022-12-29T08:31:26;8.98;;;5.47;;
18302;SDS011;9277;37.980;23.748;2022-12-29T08:33:52;14.00;;;5.43;;
18302;SDS011;9277;37.980;23.748;2022-12-29T08:36:19;8.38;;;5.05;;
18302;SDS011;9277;37.980;23.748;2022-12-29T08:38:46;7.38;;;4.85;;
18302;SDS011;9277;37.980;23.748;2022-12-29T08:41:14;9.93;;;5.13;;
18302;SDS011;9277;37.980;23.748;2022-12-29T08:43:41;9.10;;;5.07;;
18302;SDS011;9277;37.980;23.748;2022-12-29T08:46:11;11.75;;;4.82;;
18302;SDS011;9277;37.980;23.748;2022-12-29T08:48:38;8.05;;;4.93;;
18302;SDS011;9277;37.980;23.748;2022-12-29T08:51:05;8.07;;;5.18;;
18302;SDS011;9277;37.980;23.748;2022-12-29T08:53:33;23.42;;;6.85;;
18302;SDS011;9277;37.980;23.748;2022-12-29T08:55:59;12.55;;;5.93;;
18302;SDS011;9277;37.980;23.748;2022-12-29T08:58:29;20.88;;;5.90;;
18302;SDS011;9277;37.980;23.748;2022-12-29T09:00:56;21.83;;;5.85;;
18302;SDS011;9277;37.980;23.748;2022-12-29T09:03:23;22.92;;;8.10;;
18302;SDS011;9277;37.980;23.748;2022-12-29T09:05:51;11.73;;;6.22;;
18302;SDS011;9277;37.980;23.748;2022-12-29T09:08:17;12.25;;;6.07;;
18302;SDS011;9277;37.980;23.748;2022-12-29T09:10:44;10.88;;;6.18;;
18302;SDS011;9277;37.980;23.748;2022-12-29T09:13:12;10.38;;;6.07;;
18302;SDS011;9277;37.980;23.748;2022-12-29T09:15:40;9.82;;;5.85;;
18302;SDS011;9277;37.980;23.748;2022-12-29T09:18:07;10.85;;;6.32;;
18302;SDS011;9277;37.980;23.748;2022-12-29T09:20:34;14.32;;;6.57;;
18302;SDS011;9277;37.980;23.748;2022-12-29T09:23:01;12.65;;;7.25;;
18302;SDS011;9277;37.980;23.748;2022-12-29T09:25:28;12.38;;;6.75;;
18302;SDS011;9277;37.980;23.748;2022-12-29T09:27:54;13.68;;;6.95;;
18302;SDS011;9277;37.980;23.748;2022-12-29T09:30:22;12.40;;;6.63;;
18302;SDS011;9277;37.980;23.748;2022-12-29T09:32:50;11.15;;;6.93;;
18302;SDS011;9277;37.980;23.748;2022-12-29T09:35:17;14.50;;;7.20;;
18302;SDS011;9277;37.980;23.748;2022-12-29T09:37:44;13.30;;;6.53;;
18302;SDS011;9277;37.980;23.748;2022-12-29T09:40:16;13.73;;;6.85;;
18302;SDS011;9277;37.980;23.748;2022-12-29T09:42:45;15.25;;;6.82;;
18302;SDS011;9277;37.980;23.748;2022-12-29T09:45:16;11.98;;;6.45;;
18302;SDS011;9277;37.980;23.748;2022-12-29T09:47:44;11.00;;;6.50;;
18302;SDS011;9277;37.980;23.748;2022-12-29T09:50:15;15.10;;;6.40;;
18302;SDS011;9277;37.980;23.748;2022-12-29T09:52:47;13.52;;;7.15;;
18302;SDS011;9277;37.980;23.748;2022-12-29T09:55:16;13.57;;;6.63;;
18302;SDS011;9277;37.980;23.748;2022-12-29T09:57:45;13.32;;;6.55;;
18302;SDS011;9277;37.980;23.748;2022-12-29T10:00:14;12.70;;;7.00;;
18302;SDS011;9277;37.980;23.748;2022-12-29T10:02:42;8.18;;;5.05;;
18302;SDS011;9277;37.980;23.748;2022-12-29T10:05:17;10.65;;;6.13;;
18302;SDS011;9277;37.980;23.748;2022-12-29T10:07:45;14.85;;;6.70;;
18302;SDS011;9277;37.980;23.748;2022-12-29T10:10:19;10.35;;;6.20;;
18302;SDS011;9277;37.980;23.748;2022-12-29T10:12:51;13.45;;;6.55;;
18302;SDS011;9277;37.980;23.748;2022-12-29T10:15:26;12.85;;;7.30;;
18302;SDS011;9277;37.980;23.748;2022-12-29T10:17:57;11.93;;;6.60;;
18302;SDS011;9277;37.980;23.748;2022-12-29T10:20:32;9.50;;;6.00;;
18302;SDS011;9277;37.980;23.748;2022-12-29T10:23:07;10.57;;;6.30;;
18302;SDS011;9277;37.980;23.748;2022-12-29T10:25:40;9.95;;;5.90;;
18302;SDS011;9277;37.980;23.748;2022-12-29T10:28:17;9.18;;;5.57;;
18302;SDS011;9277;37.980;23.748;2022-12-29T10:30:45;9.85;;;5.82;;
18302;SDS011;9277;37.980;23.748;2022-12-29T10:33:14;12.02;;;6.80;;
18302;SDS011;9277;37.980;23.748;2022-12-29T10:35:44;16.45;;;6.72;;
18302;SDS011;9277;37.980;23.748;2022-12-29T10:38:15;12.15;;;6.28;;
18302;SDS011;9277;37.980;23.748;2022-12-29T10:40:46;14.93;;;5.70;;
18302;SDS011;9277;37.980;23.748;2022-12-29T10:43:18;11.50;;;5.82;;
18302;SDS011;9277;37.980;23.748;2022-12-29T10:45:47;8.23;;;5.22;;
18302;SDS011;9277;37.980;23.748;2022-12-29T10:48:15;11.40;;;5.53;;
18302;SDS011;9277;37.980;23.748;2022-12-29T10:50:47;10.80;;;6.35;;
18302;SDS011;9277;37.980;23.748;2022-12-29T10:53:16;8.25;;;5.05;;
18302;SDS011;9277;37.980;23.748;2022-12-29T10:55:45;14.43;;;8.30;;
18302;SDS011;9277;37.980;23.748;2022-12-29T10:58:13;9.48;;;5.82;;
18302;SDS011;9277;37.980;23.748;2022-12-29T11:00:41;13.02;;;6.85;;
18302;SDS011;9277;37.980;23.748;2022-12-29T11:03:11;14.88;;;7.18;;
18302;SDS011;9277;37.980;23.748;2022-12-29T11:05:45;16.13;;;6.35;;
18302;SDS011;9277;37.980;23.748;2022-12-29T11:08:15;16.95;;;7.70;;
18302;SDS011;9277;37.980;23.748;2022-12-29T11:10:43;17.08;;;8.30;;
18302;SDS011;9277;37.980;23.748;2022-12-29T11:13:11;28.80;;;11.77;;
18302;SDS011;9277;37.980;23.748;2022-12-29T11:15:39;30.35;;;11.45;;
18302;SDS011;9277;37.980;23.748;2022-12-29T11:18:08;21.00;;;10.25;;
18302;SDS011;9277;37.980;23.748;2022-12-29T11:20:43;22.13;;;10.15;;
18302;SDS011;9277;37.980;23.748;2022-12-29T11:23:22;19.38;;;9.68;;
18302;SDS011;9277;37.980;23.748;2022-12-29T11:25:56;17.77;;;8.52;;
18302;SDS011;9277;37.980;23.748;2022-12-29T11:28:31;20.45;;;8.82;;
18302;SDS011;9277;37.980;23.748;2022-12-29T11:30:59;18.50;;;8.80;;
18302;SDS011;9277;37.980;23.748;2022-12-29T11:33:27;19.95;;;9.45;;
18302;SDS011;9277;37.980;23.748;2022-12-29T11:35:56;16.42;;;8.65;;
18302;SDS011;9277;37.980;23.748;2022-12-29T11:38:25;19.75;;;8.23;;
18302;SDS011;9277;37.980;23.748;2022-12-29T11:40:53;21.55;;;9.35;;
18302;SDS011;9277;37.980;23.748;2022-12-29T11:43:22;24.60;;;10.65;;
18302;SDS011;9277;37.980;23.748;2022-12-29T11:45:51;16.65;;;8.45;;
18302;SDS011;9277;37.980;23.748;2022-12-29T11:48:18;21.52;;;10.77;;
18302;SDS011;9277;37.980;23.748;2022-12-29T11:50:48;19.83;;;8.32;;
18302;SDS011;9277;37.980;23.748;2022-12-29T11:53:17;17.15;;;8.25;;
18302;SDS011;9277;37.980;23.748;2022-12-29T11:55:52;19.45;;;9.32;;
18302;SDS011;9277;37.980;23.748;2022-12-29T11:58:19;15.93;;;7.85;;
18302;SDS011;9277;37.980;23.748;2022-12-29T12:00:46;18.23;;;8.20;;
18302;SDS011;9277;37.980;23.748;2022-12-29T12:03:16;15.60;;;8.40;;
18302;SDS011;9277;37.980;23.748;2022-12-29T12:05:45;22.55;;;9.88;;
18302;SDS011;9277;37.980;23.748;2022-12-29T12:08:17;17.33;;;8.55;;
18302;SDS011;9277;37.980;23.748;2022-12-29T12:10:46;15.68;;;7.32;;
18302;SDS011;9277;37.980;23.748;2022-12-29T12:13:17;19.95;;;8.48;;
18302;SDS011;9277;37.980;23.748;2022-12-29T12:15:47;22.25;;;9.45;;
18302;SDS011;9277;37.980;23.748;2022-12-29T12:18:18;21.48;;;9.18;;
18302;SDS011;9277;37.980;23.748;2022-12-29T12:20:46;16.02;;;8.00;;
18302;SDS011;9277;37.980;23.748;2022-12-29T12:23:32;18.52;;;9.55;;
18302;SDS011;9277;37.980;23.748;2022-12-29T12:26:02;23.63;;;10.70;;
18302;SDS011;9277;37.980;23.748;2022-12-29T12:28:36;22.08;;;10.38;;
18302;SDS011;9277;37.980;23.748;2022-12-29T12:31:05;24.02;;;11.20;;
18302;SDS011;9277;37.980;23.748;2022-12-29T12:33:33;21.45;;;10.40;;
18302;SDS011;9277;37.980;23.748;2022-12-29T12:36:09;26.83;;;10.75;;
18302;SDS011;9277;37.980;23.748;2022-12-29T12:38:42;19.35;;;9.15;;
18302;SDS011;9277;37.980;23.748;2022-12-29T12:41:11;20.60;;;10.15;;
18302;SDS011;9277;37.980;23.748;2022-12-29T12:43:40;20.80;;;9.65;;
18302;SDS011;9277;37.980;23.748;2022-12-29T12:48:59;22.25;;;10.27;;
18302;SDS011;9277;37.980;23.748;2022-12-29T12:51:29;20.33;;;8.90;;
18302;SDS011;9277;37.980;23.748;2022-12-29T12:54:05;19.70;;;8.98;;
18302;SDS011;9277;37.980;23.748;2022-12-29T12:56:41;17.88;;;8.52;;
18302;SDS011;9277;37.980;23.748;2022-12-29T12:59:14;17.42;;;8.48;;
18302;SDS011;9277;37.980;23.748;2022-12-29T13:01:46;18.70;;;7.68;;
18302;SDS011;9277;37.980;23.748;2022-12-29T13:07:10;12.93;;;7.30;;
18302;SDS011;9277;37.980;23.748;2022-12-29T13:09:46;12.93;;;7.50;;
18302;SDS011;9277;37.980;23.748;2022-12-29T13:12:18;11.68;;;6.90;;
18302;SDS011;9277;37.980;23.748;2022-12-29T13:14:53;17.52;;;7.38;;
18302;SDS011;9277;37.980;23.748;2022-12-29T13:17:25;16.40;;;6.97;;
18302;SDS011;9277;37.980;23.748;2022-12-29T13:19:55;12.50;;;7.28;;
18302;SDS011;9277;37.980;23.748;2022-12-29T13:22:24;14.68;;;7.72;;
18302;SDS011;9277;37.980;23.748;2022-12-29T13:24:56;16.48;;;7.25;;
18302;SDS011;9277;37.980;23.748;2022-12-29T13:27:29;16.10;;;7.63;;
18302;SDS011;9277;37.980;23.748;2022-12-29T13:30:00;12.35;;;7.05;;
18302;SDS011;9277;37.980;23.748;2022-12-29T13:32:31;15.63;;;6.93;;
18302;SDS011;9277;37.980;23.748;2022-12-29T13:35:04;18.30;;;7.03;;
18302;SDS011;9277;37.980;23.748;2022-12-29T13:37:36;17.02;;;6.80;;
18302;SDS011;9277;37.980;23.748;2022-12-29T13:40:10;15.45;;;7.63;;
18302;SDS011;9277;37.980;23.748;2022-12-29T13:42:37;14.32;;;6.55;;
18302;SDS011;9277;37.980;23.748;2022-12-29T13:45:09;12.90;;;7.03;;
18302;SDS011;9277;37.980;23.748;2022-12-29T13:47:38;13.27;;;6.60;;
18302;SDS011;9277;37.980;23.748;2022-12-29T13:50:11;14.00;;;6.63;;
18302;SDS011;9277;37.980;23.748;2022-12-29T13:52:44;13.93;;;6.38;;
18302;SDS011;9277;37.980;23.748;2022-12-29T13:55:17;14.20;;;6.57;;
18302;SDS011;9277;37.980;23.748;2022-12-29T13:57:47;17.33;;;8.75;;
18302;SDS011;9277;37.980;23.748;2022-12-29T14:00:18;14.10;;;6.90;;
18302;SDS011;9277;37.980;23.748;2022-12-29T14:02:50;15.10;;;7.30;;
18302;SDS011;9277;37.980;23.748;2022-12-29T14:05:28;14.18;;;7.25;;
18302;SDS011;9277;37.980;23.748;2022-12-29T14:07:58;13.05;;;7.20;;
18302;SDS011;9277;37.980;23.748;2022-12-29T14:10:27;14.70;;;6.72;;
18302;SDS011;9277;37.980;23.748;2022-12-29T14:12:59;15.88;;;7.97;;
18302;SDS011;9277;37.980;23.748;2022-12-29T14:15:28;16.38;;;7.30;;
18302;SDS011;9277;37.980;23.748;2022-12-29T14:18:11;16.73;;;8.05;;
18302;SDS011;9277;37.980;23.748;2022-12-29T14:20:39;15.32;;;7.43;;
18302;SDS011;9277;37.980;23.748;2022-12-29T14:23:17;15.23;;;7.30;;
18302;SDS011;9277;37.980;23.748;2022-12-29T14:28:32;11.80;;;6.95;;
18302;SDS011;9277;37.980;23.748;2022-12-29T14:31:01;12.55;;;6.53;;
18302;SDS011;9277;37.980;23.748;2022-12-29T14:33:29;12.75;;;6.95;;
18302;SDS011;9277;37.980;23.748;2022-12-29T14:35:56;11.05;;;6.30;;
18302;SDS011;9277;37.980;23.748;2022-12-29T14:38:24;19.20;;;6.63;;
18302;SDS011;9277;37.980;23.748;2022-12-29T14:40:52;11.07;;;7.00;;
18302;SDS011;9277;37.980;23.748;2022-12-29T14:43:25;14.95;;;7.25;;
18302;SDS011;9277;37.980;23.748;2022-12-29T14:45:54;12.35;;;6.82;;
18302;SDS011;9277;37.980;23.748;2022-12-29T14:48:28;13.60;;;6.38;;
18302;SDS011;9277;37.980;23.748;2022-12-29T14:50:56;13.27;;;6.55;;
18302;SDS011;9277;37.980;23.748;2022-12-29T14:53:43;13.50;;;5.65;;
18302;SDS011;9277;37.980;23.748;2022-12-29T14:56:11;11.77;;;6.22;;
18302;SDS011;9277;37.980;23.748;2022-12-29T14:58:39;20.05;;;6.55;;
18302;SDS011;9277;37.980;23.748;2022-12-29T15:01:13;13.50;;;6.60;;